More Magic — 2DWJ4 — position and weather

sailwx.info

Track history (hours):
 
Tides and Currents Weather Stations Pressure Air Temp Water Temp Dewpoint Dewpoint Depression Visibility Wind Speed Wind Dir Waves Ship Positions

More Magic

Last reported at 2015-Aug-17 22:23 UTC. Time now 2015-Aug-30 18:05 UTC.
Position N 41°35' W 071°17'.
Warning: this ship's position is 12 days out of date.

Length 20 m.

Type: Sailing vessel. MMSI: 235082545.

Date/timePositionNaut miles runAvg speedWind from/ knotsBaromVisibWave heightAir tempDewpointWater temp
2015-Aug-17 22:23N 41°35' W 071°17'8 7.3
2015-Aug-17 21:20N 41°28' W 071°22'5 6.1
2015-Aug-17 20:33N 41°26' W 071°16'8 7.6
2015-Aug-17 19:33N 41°27' W 071°06'8 8.0
2015-Aug-17 18:33N 41°28' W 070°55'8 8.0
2015-Aug-17 17:33N 41°31' W 070°45'4 3.5
2015-Aug-17 16:32N 41°31' W 070°41'8 0.4
2015-Aug-16 20:32N 41°25' W 070°47'2 2.4
2015-Aug-16 19:33N 41°23' W 070°48'4 0.2
2015-Aug-15 23:31N 41°26' W 070°51'0 0.0
2015-Aug-15 22:31N 41°26' W 070°51'0 0.0
2015-Aug-15 21:31N 41°26' W 070°51'0 0.0
2015-Aug-15 20:31N 41°26' W 070°51'3 0.1
2015-Aug-15 02:07N 41°26' W 070°54'0 0.0
2015-Aug-15 01:30N 41°26' W 070°54'0 0.0
2015-Aug-15 00:33N 41°26' W 070°54'0 0.0
2015-Aug-14 23:32N 41°26' W 070°54'0 0.0
2015-Aug-14 22:32N 41°26' W 070°54'0 0.0
2015-Aug-14 21:32N 41°26' W 070°54'0 0.0
2015-Aug-14 20:32N 41°26' W 070°54'2 2.5
2015-Aug-14 19:33N 41°28' W 070°53'4 4.2
2015-Aug-14 18:33N 41°30' W 070°48'4 4.0
2015-Aug-14 17:33N 41°32' W 070°43'2 1.8
2015-Aug-14 16:33N 41°31' W 070°41'0 0.0
2015-Aug-14 15:30N 41°31' W 070°41'  
Track history (hours):
 
Tides and Currents Weather Stations Pressure Air Temp Water Temp Dewpoint Dewpoint Depression Visibility Wind Speed Wind Dir Waves Ship Positions

More Magic

Last reported at 2015-Aug-17 22:23 UTC. Time now 2015-Aug-30 18:05 UTC.
Position N 41°35' W 071°17'.
Warning: this ship's position is 12 days out of date.

Length 20 m.

Type: Sailing vessel. MMSI: 235082545.

Date/timePositionNaut miles runAvg speedWind from/ knotsBaromVisibWave heightAir tempDewpointWater temp
2015-Aug-17 22:23N 41°35' W 071°17'8 7.3
2015-Aug-17 21:20N 41°28' W 071°22'5 6.1
2015-Aug-17 20:33N 41°26' W 071°16'8 7.6
2015-Aug-17 19:33N 41°27' W 071°06'8 8.0
2015-Aug-17 18:33N 41°28' W 070°55'8 8.0
2015-Aug-17 17:33N 41°31' W 070°45'4 3.5
2015-Aug-17 16:32N 41°31' W 070°41'8 0.4
2015-Aug-16 20:32N 41°25' W 070°47'2 2.4
2015-Aug-16 19:33N 41°23' W 070°48'4 0.2
2015-Aug-15 23:31N 41°26' W 070°51'0 0.0
2015-Aug-15 22:31N 41°26' W 070°51'0 0.0
2015-Aug-15 21:31N 41°26' W 070°51'0 0.0
2015-Aug-15 20:31N 41°26' W 070°51'3 0.1
2015-Aug-15 02:07N 41°26' W 070°54'0 0.0
2015-Aug-15 01:30N 41°26' W 070°54'0 0.0
2015-Aug-15 00:33N 41°26' W 070°54'0 0.0
2015-Aug-14 23:32N 41°26' W 070°54'0 0.0
2015-Aug-14 22:32N 41°26' W 070°54'0 0.0
2015-Aug-14 21:32N 41°26' W 070°54'0 0.0
2015-Aug-14 20:32N 41°26' W 070°54'2 2.5
2015-Aug-14 19:33N 41°28' W 070°53'4 4.2
2015-Aug-14 18:33N 41°30' W 070°48'4 4.0
2015-Aug-14 17:33N 41°32' W 070°43'2 1.8
2015-Aug-14 16:33N 41°31' W 070°41'0 0.0
2015-Aug-14 15:30N 41°31' W 070°41'  

Dump ship's entire track history